Lima, Iowa
Current Conditions -  °F | °C
As of 7:35 AM on Saturday 20 Dec 2014 (Local Time) from KOLZ Reporting Station
Haze Haze  
Wind Chill: 20°   Ceiling: 400
Heat Index: 28°   Visibility: 1.5mi
Dew Point: 28°   Wind: 8mph
Humidity: 100%   Direction: 150°SSE
Pressure: 30.2"   Gusts: NA
Location:  42.8663°N, 91.8396°W
Report Text: KOLZ 201335Z AUTO 15007KT 1 1/2SM BR OVC004 M02/M02 A3020 RMK AO2
Loading
Personal Weather Stations






























Interactive Weather Map New forecast layout! Learn more

10-Day Weather Forecast

Advertisements
Track Severe Weather on mobile